createdAt,value
2024-01-06T00:00:51.285Z,6.03
2024-01-06T00:03:24.314Z,7.90
2024-01-06T00:05:57.738Z,5.18
2024-01-06T00:08:30.634Z,8.73
2024-01-06T00:11:05.145Z,7.95
2024-01-06T00:13:38.451Z,9.18
2024-01-06T00:16:12.895Z,8.07
2024-01-06T00:18:45.983Z,6.07
2024-01-06T00:21:18.907Z,6.15
2024-01-06T00:23:51.866Z,7.45
2024-01-06T00:26:25.529Z,7.93
2024-01-06T00:28:58.321Z,7.03
2024-01-06T00:31:32.744Z,7.07
2024-01-06T00:34:05.972Z,7.30
2024-01-06T00:36:39.031Z,9.48
2024-01-06T00:39:11.921Z,6.55
2024-01-06T00:41:44.811Z,6.13
2024-01-06T00:44:17.676Z,8.25
2024-01-06T00:46:52.028Z,7.35
2024-01-06T00:49:25.094Z,12.43
2024-01-06T00:51:58.155Z,7.25
2024-01-06T00:54:31.216Z,8.70
2024-01-06T00:57:04.070Z,5.15
2024-01-06T00:59:36.921Z,5.43
2024-01-06T01:02:11.079Z,6.00
2024-01-06T01:04:43.932Z,5.07
2024-01-06T01:07:17.035Z,6.90
2024-01-06T01:09:49.932Z,8.82
2024-01-06T01:12:22.786Z,6.40
2024-01-06T01:14:56.106Z,6.35
2024-01-06T01:17:30.668Z,4.97
2024-01-06T01:20:03.862Z,6.50
2024-01-06T01:22:37.339Z,6.72
2024-01-06T01:25:11.162Z,4.85
2024-01-06T01:27:43.979Z,6.55
2024-01-06T01:30:16.260Z,5.03
2024-01-06T01:32:50.706Z,8.98
2024-01-06T01:35:23.632Z,9.98
2024-01-06T01:37:56.428Z,5.43
2024-01-06T01:40:29.319Z,14.27
2024-01-06T01:43:04.877Z,5.80
2024-01-06T01:45:37.711Z,7.90
2024-01-06T01:48:12.198Z,6.72
2024-01-06T01:50:45.365Z,7.90
2024-01-06T01:53:18.371Z,4.25
2024-01-06T01:55:52.079Z,7.15
2024-01-06T01:58:24.933Z,4.05
2024-01-06T02:00:57.860Z,9.75
2024-01-06T02:03:32.827Z,4.78
2024-01-06T02:06:05.854Z,5.13
2024-01-06T02:08:39.278Z,5.30
2024-01-06T02:11:12.136Z,4.63
2024-01-06T02:13:45.075Z,6.40
2024-01-06T02:16:18.088Z,5.95
2024-01-06T02:18:52.296Z,6.18
2024-01-06T02:21:25.857Z,6.80
2024-01-06T02:24:00.012Z,5.63
2024-01-06T02:26:33.110Z,5.28
2024-01-06T02:29:05.928Z,5.97
2024-01-06T02:31:38.913Z,4.50
2024-01-06T02:34:19.329Z,4.68
2024-01-06T02:39:26.267Z,4.95
2024-01-06T02:41:59.111Z,5.63
2024-01-06T02:44:31.913Z,4.05
2024-01-06T02:47:04.960Z,4.50
2024-01-06T02:49:38.054Z,5.32
2024-01-06T02:52:10.950Z,8.57
2024-01-06T02:54:45.233Z,3.58
2024-01-06T02:57:18.296Z,5.22
2024-01-06T02:59:51.623Z,6.10
2024-01-06T03:02:24.505Z,9.45
2024-01-06T03:04:57.528Z,7.38
2024-01-06T03:07:30.279Z,8.88
2024-01-06T03:10:04.956Z,11.70
2024-01-06T03:12:38.279Z,13.82
2024-01-06T03:15:12.055Z,10.68
2024-01-06T03:17:45.020Z,6.75
2024-01-06T03:20:18.026Z,6.03
2024-01-06T03:22:51.023Z,5.82
2024-01-06T03:25:25.195Z,5.22
2024-01-06T03:27:58.166Z,6.38
2024-01-06T03:30:31.175Z,6.13
2024-01-06T03:33:04.409Z,5.07
2024-01-06T03:35:37.245Z,6.28
2024-01-06T03:38:10.131Z,4.53
2024-01-06T03:40:44.413Z,6.22
2024-01-06T03:43:17.206Z,7.57
2024-01-06T03:45:50.114Z,6.50
2024-01-06T03:48:23.081Z,5.43
2024-01-06T03:50:56.242Z,5.95
2024-01-06T03:53:29.061Z,6.78
2024-01-06T03:56:03.415Z,5.55
2024-01-06T03:58:36.507Z,8.18
2024-01-06T04:01:09.398Z,6.43
2024-01-06T04:03:42.747Z,3.88
2024-01-06T04:06:16.397Z,4.88
2024-01-06T04:08:49.290Z,3.90
2024-01-06T04:11:23.631Z,5.65
2024-01-06T04:13:56.451Z,4.18
2024-01-06T04:16:29.396Z,5.78
2024-01-06T04:19:02.339Z,5.60
2024-01-06T04:21:35.301Z,6.85
2024-01-06T04:24:09.226Z,8.23
2024-01-06T04:26:46.068Z,5.72
2024-01-06T04:29:18.844Z,6.18
2024-01-06T04:31:51.791Z,4.90
2024-01-06T04:34:24.662Z,7.97
2024-01-06T04:36:57.658Z,5.65
2024-01-06T04:39:30.436Z,9.55
2024-01-06T04:42:05.213Z,6.97
2024-01-06T04:44:38.064Z,6.90
2024-01-06T04:47:10.923Z,10.20
2024-01-06T04:49:43.838Z,8.63
2024-01-06T04:52:16.661Z,6.35
2024-01-06T04:54:49.794Z,5.50
2024-01-06T04:57:24.567Z,8.82
2024-01-06T04:59:57.384Z,6.07
2024-01-06T05:02:30.422Z,3.65
2024-01-06T05:05:03.264Z,5.53
2024-01-06T05:07:36.101Z,10.43
2024-01-06T05:10:10.181Z,5.00
2024-01-06T05:12:45.066Z,8.75
2024-01-06T05:15:18.236Z,5.43
2024-01-06T05:17:51.128Z,6.88
2024-01-06T05:20:23.973Z,7.75
2024-01-06T05:22:56.709Z,7.05
2024-01-06T05:25:29.544Z,19.17
2024-01-06T05:28:03.761Z,12.18
2024-01-06T05:30:36.871Z,11.30
2024-01-06T05:33:15.192Z,6.70
2024-01-06T05:35:48.473Z,6.90
2024-01-06T05:38:21.268Z,6.10
2024-01-06T05:40:54.052Z,7.13
2024-01-06T05:43:28.511Z,8.05
2024-01-06T05:46:01.398Z,6.07
2024-01-06T05:48:34.691Z,6.35
2024-01-06T05:51:07.691Z,8.38
2024-01-06T05:53:40.488Z,9.15
2024-01-06T05:56:13.468Z,6.80
2024-01-06T05:58:47.832Z,10.77
2024-01-06T06:01:23.461Z,8.32
2024-01-06T06:03:56.913Z,6.55
2024-01-06T06:06:29.804Z,7.43
2024-01-06T06:09:07.930Z,8.82
2024-01-06T06:11:40.718Z,7.38
2024-01-06T06:14:15.460Z,9.52
2024-01-06T06:16:49.029Z,9.45
2024-01-06T06:19:21.938Z,5.05
2024-01-06T06:21:55.055Z,8.80
2024-01-06T06:24:27.968Z,8.85
2024-01-06T06:27:00.829Z,8.20
2024-01-06T06:29:35.485Z,8.90
2024-01-06T06:32:09.191Z,9.45
2024-01-06T06:34:42.034Z,8.02
2024-01-06T06:37:15.250Z,12.30
2024-01-06T06:39:48.443Z,7.88
2024-01-06T06:42:21.614Z,13.38
2024-01-06T06:44:56.869Z,12.23
2024-01-06T06:47:29.709Z,10.45
2024-01-06T06:50:02.652Z,14.07
2024-01-06T06:52:35.496Z,9.60
2024-01-06T06:55:09.176Z,11.40
2024-01-06T06:57:42.057Z,13.18
2024-01-06T07:00:18.305Z,13.15
2024-01-06T07:02:51.293Z,8.73
2024-01-06T07:05:24.150Z,11.55
2024-01-06T07:07:57.208Z,11.65
2024-01-06T07:10:29.994Z,10.18
2024-01-06T07:13:02.898Z,12.52
2024-01-06T07:15:37.261Z,8.50
2024-01-06T07:18:10.968Z,13.52
2024-01-06T07:20:43.880Z,11.13
2024-01-06T07:23:16.734Z,7.07
2024-01-06T07:25:50.346Z,13.85
2024-01-06T07:28:23.284Z,13.05
2024-01-06T07:30:57.522Z,13.30
2024-01-06T07:33:30.602Z,13.77
2024-01-06T07:36:03.433Z,17.85
2024-01-06T07:38:36.297Z,11.70
2024-01-06T07:41:09.246Z,13.05
2024-01-06T07:43:41.967Z,14.27
2024-01-06T07:46:18.292Z,11.40
2024-01-06T07:48:52.779Z,9.88
2024-01-06T07:51:26.238Z,10.15
2024-01-06T07:53:59.426Z,13.05
2024-01-06T07:56:32.197Z,11.00
2024-01-06T07:59:06.330Z,8.57
2024-01-06T08:01:40.699Z,10.73
2024-01-06T08:04:13.629Z,11.25
2024-01-06T08:06:46.561Z,9.43
2024-01-06T08:09:19.411Z,11.77
2024-01-06T08:11:52.335Z,10.30
2024-01-06T08:14:25.132Z,11.32
2024-01-06T08:16:59.235Z,11.70
2024-01-06T08:19:33.681Z,11.32
2024-01-06T08:22:06.556Z,8.75
2024-01-06T08:24:39.438Z,8.20
2024-01-06T08:27:12.306Z,7.00
2024-01-06T08:29:45.151Z,10.20
2024-01-06T08:32:19.311Z,13.68
2024-01-06T08:34:52.229Z,11.15
2024-01-06T08:37:25.034Z,11.85
2024-01-06T08:39:58.018Z,11.75
2024-01-06T08:42:30.986Z,15.65
2024-01-06T08:45:04.207Z,15.40
2024-01-06T08:47:39.040Z,11.30
2024-01-06T08:50:11.854Z,9.15
2024-01-06T08:52:44.623Z,10.50
2024-01-06T08:55:18.099Z,14.23
2024-01-06T08:57:50.921Z,8.23
2024-01-06T09:00:23.887Z,11.00
2024-01-06T09:02:58.117Z,10.35
2024-01-06T09:05:31.077Z,8.43
2024-01-06T09:08:04.268Z,11.55
2024-01-06T09:10:37.269Z,10.05
2024-01-06T09:13:10.099Z,10.65
2024-01-06T09:15:43.592Z,11.70
2024-01-06T09:18:18.124Z,11.50
2024-01-06T09:20:51.028Z,10.60
2024-01-06T09:23:25.573Z,14.95
2024-01-06T09:25:59.003Z,12.88
2024-01-06T09:28:31.915Z,11.00
2024-01-06T09:31:06.007Z,10.07
2024-01-06T09:33:40.286Z,12.88
2024-01-06T09:36:14.930Z,11.35
2024-01-06T09:38:47.928Z,10.05
2024-01-06T09:41:22.843Z,10.05
2024-01-06T09:43:56.927Z,11.93
2024-01-06T09:46:31.578Z,11.70
2024-01-06T09:49:06.333Z,11.57
2024-01-06T09:51:41.364Z,8.02
2024-01-06T09:54:15.434Z,14.52
2024-01-06T09:56:48.569Z,15.10
2024-01-06T09:59:21.371Z,10.05
2024-01-06T10:01:55.088Z,9.02
2024-01-06T10:04:29.335Z,9.68
2024-01-06T10:07:02.427Z,13.77
2024-01-06T10:09:35.539Z,10.05
2024-01-06T10:12:09.436Z,11.27
2024-01-06T10:14:42.427Z,10.85
2024-01-06T10:17:15.684Z,9.75
2024-01-06T10:19:50.477Z,10.50
2024-01-06T10:22:24.122Z,9.63
2024-01-06T10:24:57.289Z,7.32
2024-01-06T10:27:30.414Z,8.00
2024-01-06T10:30:03.848Z,8.98
2024-01-06T10:32:38.248Z,6.78
2024-01-06T10:35:13.080Z,10.30
2024-01-06T10:37:46.339Z,10.77
2024-01-06T10:40:19.934Z,9.80
2024-01-06T10:42:53.622Z,13.43
2024-01-06T10:45:26.489Z,8.07
2024-01-06T10:48:01.868Z,10.30
2024-01-06T10:50:36.758Z,11.25
2024-01-06T10:53:10.876Z,13.20
2024-01-06T10:55:44.137Z,6.25
2024-01-06T10:58:19.174Z,8.88
2024-01-06T11:00:52.805Z,7.03
2024-01-06T11:03:27.415Z,12.13
2024-01-06T11:06:02.162Z,12.25
2024-01-06T11:08:44.321Z,8.20
2024-01-06T11:11:18.835Z,12.90
2024-01-06T11:13:52.044Z,12.73
2024-01-06T11:16:37.969Z,10.13
2024-01-06T11:19:45.809Z,22.98
2024-01-06T11:22:26.168Z,19.17
2024-01-06T11:25:05.876Z,19.52
2024-01-06T11:27:38.952Z,14.32
2024-01-06T11:30:22.129Z,9.40
2024-01-06T11:32:56.121Z,9.43
2024-01-06T11:35:30.102Z,11.05
2024-01-06T11:38:05.160Z,7.65
2024-01-06T11:40:39.065Z,9.70
2024-01-06T11:43:13.715Z,9.98
2024-01-06T11:45:46.924Z,9.18
2024-01-06T11:48:25.966Z,9.57
2024-01-06T11:51:00.652Z,11.05
2024-01-06T11:53:38.881Z,9.98
2024-01-06T11:56:12.027Z,9.70
2024-01-06T11:58:44.924Z,10.43
2024-01-06T12:01:17.879Z,9.75
2024-01-06T12:03:56.414Z,9.68
2024-01-06T12:06:29.277Z,15.07
2024-01-06T12:09:07.460Z,10.35
2024-01-06T12:11:40.786Z,9.50
2024-01-06T12:14:13.617Z,9.18
2024-01-06T12:16:46.404Z,7.57
2024-01-06T12:19:19.824Z,10.70
2024-01-06T12:21:52.762Z,8.73
2024-01-06T12:24:30.608Z,9.63
2024-01-06T12:27:03.697Z,11.07
2024-01-06T12:29:40.716Z,25.50
2024-01-06T12:32:14.609Z,13.75
2024-01-06T12:34:48.261Z,12.45
2024-01-06T12:37:21.342Z,9.43
2024-01-06T12:39:56.036Z,9.07
2024-01-06T12:42:30.209Z,11.50
2024-01-06T12:45:03.329Z,8.60
2024-01-06T12:47:36.693Z,11.00
2024-01-06T12:50:10.221Z,11.77
2024-01-06T12:52:43.279Z,10.38
2024-01-06T12:55:17.886Z,9.73
2024-01-06T12:57:50.888Z,9.65
2024-01-06T13:00:24.048Z,8.52
2024-01-06T13:02:57.229Z,9.25
2024-01-06T13:05:30.369Z,6.88
2024-01-06T13:08:04.467Z,11.60
2024-01-06T13:10:39.617Z,8.63
2024-01-06T13:13:12.615Z,9.57
2024-01-06T13:15:47.243Z,10.50
2024-01-06T13:18:20.337Z,8.18
2024-01-06T13:20:54.472Z,11.35
2024-01-06T13:23:27.391Z,9.07
2024-01-06T13:26:01.960Z,13.63
2024-01-06T13:28:34.772Z,12.73
2024-01-06T13:31:08.203Z,13.82
2024-01-06T13:33:41.623Z,11.18
2024-01-06T13:36:14.806Z,10.25
2024-01-06T13:38:49.307Z,11.00
2024-01-06T13:41:23.777Z,10.60
2024-01-06T13:43:56.786Z,10.75
2024-01-06T13:46:29.672Z,10.18
2024-01-06T13:49:03.355Z,8.98
2024-01-06T13:51:37.074Z,10.73
2024-01-06T13:54:10.490Z,9.48
2024-01-06T13:56:44.643Z,8.98
2024-01-06T13:59:17.887Z,7.53
2024-01-06T14:01:51.415Z,10.73
2024-01-06T14:04:24.921Z,8.38
2024-01-06T14:07:00.183Z,9.73
2024-01-06T14:09:35.183Z,10.73
2024-01-06T14:12:09.730Z,10.73
2024-01-06T14:14:43.091Z,9.02
2024-01-06T14:17:15.852Z,13.07
2024-01-06T14:19:48.832Z,8.00
2024-01-06T14:22:21.760Z,9.10
2024-01-06T14:24:54.773Z,12.35
2024-01-06T14:27:30.943Z,12.40
2024-01-06T14:30:03.958Z,11.27
2024-01-06T14:32:37.598Z,8.73
2024-01-06T14:35:12.726Z,8.35
2024-01-06T14:37:46.576Z,12.27
2024-01-06T14:40:19.605Z,13.30
2024-01-06T14:42:53.797Z,14.25
2024-01-06T14:45:28.035Z,14.98
2024-01-06T14:48:01.922Z,14.57
2024-01-06T14:50:35.164Z,9.93
2024-01-06T14:53:08.029Z,12.73
2024-01-06T14:55:41.002Z,10.20
2024-01-06T14:58:15.102Z,8.20
2024-01-06T15:00:48.010Z,13.82
2024-01-06T15:03:20.856Z,11.35
2024-01-06T15:05:53.871Z,12.52
2024-01-06T15:08:27.694Z,12.65
2024-01-06T15:11:00.505Z,10.60
2024-01-06T15:13:34.762Z,9.70
2024-01-06T15:16:08.799Z,13.32
2024-01-06T15:18:41.714Z,11.00
2024-01-06T15:21:16.318Z,14.10
2024-01-06T15:23:49.366Z,13.57
2024-01-06T15:26:26.466Z,12.00
2024-01-06T15:29:01.797Z,18.02
2024-01-06T15:31:34.923Z,16.25
2024-01-06T15:34:08.340Z,14.43
2024-01-06T15:36:41.362Z,11.02
2024-01-06T15:39:15.469Z,12.18
2024-01-06T15:41:48.327Z,13.38
2024-01-06T15:44:22.480Z,14.93
2024-01-06T15:46:55.297Z,17.98
2024-01-06T15:49:28.763Z,16.90
2024-01-06T15:52:02.665Z,14.20
2024-01-06T15:54:35.697Z,19.52
2024-01-06T15:57:09.716Z,21.08
2024-01-06T15:59:43.915Z,17.30
2024-01-06T16:02:17.085Z,18.08
2024-01-06T16:04:49.860Z,15.82
2024-01-06T16:07:24.099Z,15.38
2024-01-06T16:09:57.505Z,15.27
2024-01-06T16:12:32.196Z,15.60
2024-01-06T16:15:07.307Z,17.20
2024-01-06T16:17:40.196Z,15.52
2024-01-06T16:20:13.518Z,10.93
2024-01-06T16:22:47.448Z,13.10
2024-01-06T16:25:20.403Z,14.02
2024-01-06T16:27:54.726Z,12.95
2024-01-06T16:30:29.037Z,10.13
2024-01-06T16:33:02.932Z,10.25
2024-01-06T16:35:36.100Z,11.73
2024-01-06T16:38:11.971Z,13.07
2024-01-06T16:40:44.932Z,20.10
2024-01-06T16:43:17.924Z,24.35
2024-01-06T16:45:53.029Z,12.98
2024-01-06T16:48:26.062Z,11.82
2024-01-06T16:50:58.929Z,11.25
2024-01-06T16:53:32.211Z,10.38
2024-01-06T16:56:05.686Z,16.17
2024-01-06T16:58:39.735Z,13.77
2024-01-06T17:01:15.325Z,14.35
2024-01-06T17:03:48.422Z,18.08
2024-01-06T17:06:21.434Z,20.10
2024-01-06T17:08:54.382Z,23.35
2024-01-06T17:11:27.269Z,22.17
2024-01-06T17:14:00.062Z,18.52
2024-01-06T17:16:34.941Z,23.95
2024-01-06T17:19:08.127Z,35.20
2024-01-06T17:21:41.125Z,28.25
2024-01-06T17:24:14.338Z,27.13
2024-01-06T17:26:47.481Z,21.67
2024-01-06T17:29:20.293Z,27.05
2024-01-06T17:31:56.490Z,22.25
2024-01-06T17:34:32.874Z,26.00
2024-01-06T17:37:06.177Z,19.77
2024-01-06T17:39:39.160Z,15.65
2024-01-06T17:42:12.025Z,17.95
2024-01-06T17:44:47.190Z,22.17
2024-01-06T17:47:21.405Z,18.95
2024-01-06T17:49:54.314Z,24.08
2024-01-06T17:52:28.037Z,18.95
2024-01-06T17:55:01.031Z,18.83
2024-01-06T17:57:35.838Z,13.52
2024-01-06T18:00:10.423Z,18.38
2024-01-06T18:02:47.996Z,27.13
2024-01-06T18:05:21.395Z,24.10
2024-01-06T18:07:54.517Z,18.90
2024-01-06T18:10:28.335Z,18.35
2024-01-06T18:13:01.355Z,17.85
2024-01-06T18:15:34.642Z,15.07
2024-01-06T18:18:09.088Z,18.70
2024-01-06T18:20:47.981Z,14.15
2024-01-06T18:23:22.760Z,18.90
2024-01-06T18:25:55.642Z,17.13
2024-01-06T18:28:28.843Z,15.65
2024-01-06T18:31:01.868Z,17.50
2024-01-06T18:33:36.356Z,15.68
2024-01-06T18:36:09.966Z,28.33
2024-01-06T18:38:42.827Z,23.15
2024-01-06T18:41:15.650Z,22.42
2024-01-06T18:43:48.523Z,26.35
2024-01-06T18:46:21.527Z,36.08
2024-01-06T18:48:55.940Z,40.17
2024-01-06T18:51:30.307Z,58.60
2024-01-06T18:54:03.188Z,57.30
2024-01-06T18:56:36.191Z,49.17
2024-01-06T18:59:10.549Z,39.80
2024-01-06T19:01:46.495Z,39.63
2024-01-06T19:04:21.196Z,44.80
2024-01-06T19:06:54.175Z,36.35
2024-01-06T19:09:29.628Z,38.33
2024-01-06T19:12:03.602Z,37.92
2024-01-06T19:14:39.237Z,26.55
2024-01-06T19:17:12.233Z,30.40
2024-01-06T19:19:46.522Z,31.75
2024-01-06T19:22:19.554Z,23.45
2024-01-06T19:24:53.311Z,22.42
2024-01-06T19:27:26.208Z,26.63
2024-01-06T19:29:59.619Z,26.00
2024-01-06T19:32:32.958Z,28.17
2024-01-06T19:35:08.665Z,26.92
2024-01-06T19:37:41.907Z,26.67
2024-01-06T19:40:16.735Z,29.63
2024-01-06T19:42:50.526Z,25.20
2024-01-06T19:45:24.905Z,28.25
2024-01-06T19:47:57.882Z,33.15
2024-01-06T19:50:32.327Z,32.45
2024-01-06T19:53:05.783Z,29.45
2024-01-06T19:55:38.684Z,32.33
2024-01-06T19:58:11.559Z,36.78
2024-01-06T20:00:44.444Z,30.88
2024-01-06T20:03:17.422Z,35.88
2024-01-06T20:05:51.882Z,28.95
2024-01-06T20:08:24.867Z,33.58
2024-01-06T20:11:01.633Z,39.35
2024-01-06T20:13:34.460Z,45.40
2024-01-06T20:16:08.480Z,37.65
2024-01-06T20:18:41.468Z,41.17
2024-01-06T20:21:15.872Z,43.63
2024-01-06T20:23:48.799Z,48.63
2024-01-06T20:26:21.733Z,43.63
2024-01-06T20:28:54.812Z,42.85
2024-01-06T20:31:28.215Z,41.28
2024-01-06T20:34:01.442Z,46.58
2024-01-06T20:36:35.895Z,40.83
2024-01-06T20:39:08.971Z,31.63
2024-01-06T20:41:41.980Z,36.30
2024-01-06T20:44:15.008Z,32.95
2024-01-06T20:46:48.957Z,35.17
2024-01-06T20:49:24.216Z,35.42
2024-01-06T20:51:59.304Z,38.42
2024-01-06T20:54:32.624Z,36.53
2024-01-06T20:57:05.894Z,36.05
2024-01-06T20:59:38.915Z,33.58
2024-01-06T21:02:14.939Z,43.97
2024-01-06T21:04:49.102Z,44.40
2024-01-06T21:07:25.982Z,43.83
2024-01-06T21:09:59.047Z,39.17
2024-01-06T21:12:34.275Z,38.55
2024-01-06T21:15:07.532Z,40.35
2024-01-06T21:17:40.906Z,36.13
2024-01-06T21:20:14.535Z,37.22
2024-01-06T21:22:49.037Z,35.28
2024-01-06T21:25:22.887Z,36.85
2024-01-06T21:27:55.883Z,36.95
2024-01-06T21:30:32.420Z,33.03
2024-01-06T21:33:08.431Z,34.95
2024-01-06T21:35:43.123Z,32.63
2024-01-06T21:38:17.365Z,35.17
2024-01-06T21:40:50.262Z,44.95
2024-01-06T21:43:23.493Z,43.63
2024-01-06T21:45:56.663Z,32.80
2024-01-06T21:48:30.969Z,35.13
2024-01-06T21:51:04.966Z,50.83
2024-01-06T21:53:39.204Z,39.78
2024-01-06T21:56:12.254Z,34.67
2024-01-06T21:58:45.191Z,32.47
2024-01-06T22:01:18.369Z,37.30
2024-01-06T22:03:51.566Z,36.83
2024-01-06T22:06:24.497Z,37.28
2024-01-06T22:08:58.718Z,35.55
2024-01-06T22:11:50.351Z,36.15
2024-01-06T22:14:24.737Z,38.22
2024-01-06T22:16:57.604Z,37.17
2024-01-06T22:19:30.497Z,38.25
2024-01-06T22:22:04.438Z,39.15
2024-01-06T22:24:38.857Z,36.28
2024-01-06T22:27:11.905Z,36.85
2024-01-06T22:29:45.640Z,31.80
2024-01-06T22:32:18.596Z,36.95
2024-01-06T22:34:56.687Z,38.63
2024-01-06T22:37:30.711Z,35.90
2024-01-06T22:40:10.051Z,36.25
2024-01-06T22:42:43.453Z,37.05
2024-01-06T22:45:16.502Z,38.05
2024-01-06T22:47:50.472Z,39.85
2024-01-06T22:50:23.743Z,38.45
2024-01-06T22:52:56.861Z,34.10
2024-01-06T22:55:31.032Z,37.13
2024-01-06T22:58:03.953Z,32.72
2024-01-06T23:00:38.237Z,28.83
2024-01-06T23:03:11.394Z,31.25
2024-01-06T23:05:44.522Z,33.10
2024-01-06T23:08:17.348Z,32.45
2024-01-06T23:10:52.088Z,32.90
2024-01-06T23:13:25.247Z,32.42
2024-01-06T23:15:59.381Z,35.47
2024-01-06T23:18:32.571Z,30.50
2024-01-06T23:21:06.839Z,31.67
2024-01-06T23:23:40.148Z,32.42
2024-01-06T23:26:14.448Z,41.08
2024-01-06T23:28:48.339Z,36.90
2024-01-06T23:31:21.292Z,42.50
2024-01-06T23:33:54.985Z,31.63
2024-01-06T23:36:27.934Z,32.50
2024-01-06T23:39:00.965Z,33.17
2024-01-06T23:41:35.291Z,30.83
2024-01-06T23:44:08.338Z,37.55
2024-01-06T23:46:41.171Z,43.20
2024-01-06T23:49:15.062Z,37.17
2024-01-06T23:51:48.112Z,36.95
2024-01-06T23:54:21.402Z,44.58
2024-01-06T23:56:56.174Z,39.35
2024-01-06T23:59:29.089Z,37.85
